createdAt,value
2018-06-01T00:00:48.414Z,48.50
2018-06-01T00:03:16.811Z,49.00
2018-06-01T00:05:45.066Z,47.90
2018-06-01T00:08:12.557Z,47.90
2018-06-01T00:10:40.129Z,48.30
2018-06-01T00:13:07.598Z,47.80
2018-06-01T00:15:35.080Z,48.00
2018-06-01T00:18:02.580Z,47.90
2018-06-01T00:20:30.816Z,48.00
2018-06-01T00:22:58.326Z,48.10
2018-06-01T00:25:25.833Z,48.40
2018-06-01T00:27:53.317Z,48.30
2018-06-01T00:30:21.619Z,48.20
2018-06-01T00:32:49.161Z,48.30
2018-06-01T00:35:17.519Z,48.10
2018-06-01T00:37:45.106Z,48.10
2018-06-01T00:40:12.579Z,48.00
2018-06-01T00:42:40.115Z,47.90
2018-06-01T00:45:08.426Z,47.60
2018-06-01T00:47:35.929Z,47.60
2018-06-01T00:50:03.473Z,46.40
2018-06-01T00:52:30.969Z,46.30
2018-06-01T00:55:10.400Z,45.10
2018-06-01T00:57:38.635Z,45.30
2018-06-01T01:00:06.118Z,45.30
2018-06-01T01:02:33.663Z,45.30
2018-06-01T01:05:01.257Z,45.70
2018-06-01T01:07:28.804Z,45.60
2018-06-01T01:09:57.077Z,45.10
2018-06-01T01:12:25.365Z,45.00
2018-06-01T01:14:53.619Z,44.00
2018-06-01T01:17:21.931Z,44.30
2018-06-01T01:19:49.391Z,44.20
2018-06-01T01:22:16.885Z,43.40
2018-06-01T01:24:44.376Z,42.60
2018-06-01T01:27:11.880Z,43.60
2018-06-01T01:29:39.391Z,42.80
2018-06-01T01:32:07.638Z,42.90
2018-06-01T01:34:35.119Z,43.00
2018-06-01T01:37:02.654Z,43.00
2018-06-01T01:39:30.146Z,43.00
2018-06-01T01:41:58.398Z,43.90
2018-06-01T01:44:25.908Z,43.70
2018-06-01T01:46:53.408Z,43.10
2018-06-01T01:49:20.892Z,43.40
2018-06-01T01:51:48.460Z,43.10
2018-06-01T01:54:16.720Z,43.90
2018-06-01T01:56:44.229Z,44.00
2018-06-01T01:59:11.691Z,43.80
2018-06-01T02:01:39.185Z,43.60
2018-06-01T02:04:06.773Z,43.70
2018-06-01T02:06:35.031Z,44.30
2018-06-01T02:09:02.513Z,44.30
2018-06-01T02:11:30.024Z,44.40
2018-06-01T02:13:57.489Z,44.30
2018-06-01T02:16:25.751Z,44.60
2018-06-01T02:18:53.327Z,44.70
2018-06-01T02:21:20.809Z,44.50
2018-06-01T02:23:49.096Z,44.40
2018-06-01T02:26:17.329Z,44.80
2018-06-01T02:28:44.841Z,44.70
2018-06-01T02:31:12.405Z,44.40
2018-06-01T02:33:39.955Z,44.90
2018-06-01T02:36:07.443Z,44.40
2018-06-01T02:38:35.064Z,44.50
2018-06-01T02:41:03.318Z,43.80
2018-06-01T02:43:30.828Z,43.80
2018-06-01T02:45:58.368Z,43.70
2018-06-01T02:48:25.849Z,43.80
2018-06-01T02:50:53.421Z,43.80
2018-06-01T02:53:20.896Z,44.20
2018-06-01T02:55:48.383Z,44.50
2018-06-01T02:58:16.789Z,45.10
2018-06-01T03:00:44.261Z,44.50
2018-06-01T03:03:11.753Z,44.50
2018-06-01T03:05:39.294Z,44.40
2018-06-01T03:08:06.804Z,44.30
2018-06-01T03:10:35.040Z,44.00
2018-06-01T03:13:02.584Z,44.00
2018-06-01T03:15:30.079Z,43.90
2018-06-01T03:17:58.343Z,43.90
2018-06-01T03:20:25.957Z,44.00
2018-06-01T03:22:53.430Z,43.80
2018-06-01T03:25:20.973Z,44.00
2018-06-01T03:27:48.512Z,43.80
2018-06-01T03:30:16.902Z,43.70
2018-06-01T03:32:44.333Z,43.80
2018-06-01T03:35:12.581Z,43.60
2018-06-01T03:37:40.181Z,43.60
2018-06-01T03:40:08.470Z,44.30
2018-06-01T03:42:36.010Z,44.30
2018-06-01T03:45:04.330Z,44.00
2018-06-01T03:47:31.798Z,44.10
2018-06-01T03:49:59.316Z,44.10
2018-06-01T03:52:26.844Z,44.00
2018-06-01T03:54:54.410Z,43.80
2018-06-01T03:57:21.980Z,43.80
2018-06-01T03:59:50.257Z,43.90
2018-06-01T04:02:18.534Z,43.90
2018-06-01T04:04:46.773Z,43.80
2018-06-01T04:07:14.272Z,43.80
2018-06-01T04:09:42.630Z,44.70
2018-06-01T04:12:10.126Z,44.70
2018-06-01T04:14:37.672Z,45.50
2018-06-01T04:17:05.190Z,45.30
2018-06-01T04:19:32.659Z,45.60
2018-06-01T04:22:01.672Z,45.30
2018-06-01T04:24:29.974Z,45.20
2018-06-01T04:26:57.540Z,45.20
2018-06-01T04:29:25.066Z,45.10
2018-06-01T04:31:53.313Z,45.20
2018-06-01T04:34:20.777Z,45.20
2018-06-01T04:36:48.334Z,45.20
2018-06-01T04:39:15.822Z,45.30
2018-06-01T04:41:44.112Z,45.60
2018-06-01T04:44:11.610Z,45.60
2018-06-01T04:46:39.077Z,45.60
2018-06-01T04:49:06.677Z,45.60
2018-06-01T04:51:34.952Z,45.60
2018-06-01T04:54:03.214Z,46.10
2018-06-01T04:56:31.533Z,45.60
2018-06-01T04:58:59.040Z,45.60
2018-06-01T05:01:26.628Z,46.00
2018-06-01T05:03:54.923Z,45.90
2018-06-01T05:06:22.384Z,46.00
2018-06-01T05:08:49.921Z,46.20
2018-06-01T05:11:17.487Z,46.20
2018-06-01T05:13:44.997Z,46.80
2018-06-01T05:16:12.550Z,46.90
2018-06-01T05:18:40.011Z,46.50
2018-06-01T05:21:07.509Z,46.00
2018-06-01T05:23:35.813Z,45.30
2018-06-01T05:26:03.300Z,45.30
2018-06-01T05:28:30.811Z,45.30
2018-06-01T05:30:58.331Z,45.30
2018-06-01T05:33:25.822Z,45.40
2018-06-01T05:35:54.099Z,45.50
2018-06-01T05:38:21.661Z,45.50
2018-06-01T05:40:49.238Z,45.60
2018-06-01T05:43:16.726Z,45.70
2018-06-01T05:45:44.362Z,45.80
2018-06-01T05:48:11.852Z,45.40
2018-06-01T05:50:39.319Z,45.90
2018-06-01T05:53:06.832Z,45.90
2018-06-01T05:55:34.369Z,46.40
2018-06-01T05:58:02.669Z,45.80
2018-06-01T06:00:30.156Z,45.90
2018-06-01T06:02:57.713Z,46.50
2018-06-01T06:05:25.206Z,46.10
2018-06-01T06:07:53.438Z,47.00
2018-06-01T06:10:20.965Z,47.00
2018-06-01T06:12:48.463Z,47.00
2018-06-01T06:15:15.978Z,46.70
2018-06-01T06:17:43.528Z,47.00
2018-06-01T06:20:10.972Z,46.80
2018-06-01T06:22:39.340Z,47.00
2018-06-01T06:25:06.880Z,47.00
2018-06-01T06:27:34.361Z,47.00
2018-06-01T06:30:02.743Z,46.70
2018-06-01T06:32:30.985Z,46.60
2018-06-01T06:34:58.477Z,46.20
2018-06-01T06:37:26.754Z,46.20
2018-06-01T06:39:55.060Z,45.80
2018-06-01T06:42:22.583Z,45.80
2018-06-01T06:44:50.827Z,45.90
2018-06-01T06:47:18.443Z,45.20
2018-06-01T06:49:46.033Z,45.10
2018-06-01T06:52:13.494Z,45.60
2018-06-01T06:54:41.090Z,45.30
2018-06-01T06:57:08.628Z,44.90
2018-06-01T06:59:36.160Z,45.00
2018-06-01T07:02:03.682Z,43.80
2018-06-01T07:04:31.949Z,43.70
2018-06-01T07:06:59.435Z,43.70
2018-06-01T07:09:27.048Z,43.90
2018-06-01T07:11:54.522Z,43.70
2018-06-01T07:14:22.758Z,44.40
2018-06-01T07:16:50.254Z,44.30
2018-06-01T07:19:17.838Z,45.00
2018-06-01T07:21:46.118Z,44.10
2018-06-01T07:24:13.654Z,44.10
2018-06-01T07:26:41.156Z,44.50
2018-06-01T07:29:09.762Z,45.50
2018-06-01T07:31:37.394Z,44.80
2018-06-01T07:34:04.873Z,44.30
2018-06-01T07:36:32.338Z,43.90
2018-06-01T07:38:59.934Z,44.20
2018-06-01T07:41:28.255Z,44.40
2018-06-01T07:43:55.730Z,44.40
2018-06-01T07:46:23.241Z,43.70
2018-06-01T07:48:51.513Z,44.30
2018-06-01T07:51:19.786Z,44.40
2018-06-01T07:53:48.060Z,44.30
2018-06-01T07:56:16.358Z,43.70
2018-06-01T07:58:43.839Z,43.70
2018-06-01T08:01:11.305Z,43.80
2018-06-01T08:03:38.884Z,43.80
2018-06-01T08:06:06.302Z,43.70
2018-06-01T08:08:33.768Z,44.00
2018-06-01T08:11:01.291Z,43.10
2018-06-01T08:13:29.561Z,43.80
2018-06-01T08:15:57.840Z,43.00
2018-06-01T08:18:26.136Z,42.80
2018-06-01T08:20:53.628Z,42.70
2018-06-01T08:23:21.123Z,41.80
2018-06-01T08:25:49.453Z,43.60
2018-06-01T08:28:17.001Z,43.60
2018-06-01T08:30:44.489Z,43.40
2018-06-01T08:33:12.017Z,42.70
2018-06-01T08:35:39.491Z,42.70
2018-06-01T08:38:07.033Z,42.70
2018-06-01T08:40:34.547Z,43.20
2018-06-01T08:43:02.045Z,43.40
2018-06-01T08:45:29.549Z,43.50
2018-06-01T08:47:57.145Z,43.40
2018-06-01T08:50:25.406Z,43.70
2018-06-01T08:52:53.696Z,43.70
2018-06-01T08:55:21.989Z,43.30
2018-06-01T08:57:49.493Z,43.30
2018-06-01T09:00:17.011Z,43.10
2018-06-01T09:02:44.544Z,43.50
2018-06-01T09:05:12.822Z,43.80
2018-06-01T09:07:41.127Z,43.70
2018-06-01T09:10:08.730Z,43.70
2018-06-01T09:12:36.168Z,42.50
2018-06-01T09:15:03.663Z,42.40
2018-06-01T09:17:31.926Z,43.40
2018-06-01T09:19:59.411Z,43.50
2018-06-01T09:22:27.685Z,42.00
2018-06-01T09:24:55.953Z,42.80
2018-06-01T09:27:24.217Z,42.60
2018-06-01T09:29:51.757Z,42.70
2018-06-01T09:32:19.277Z,42.40
2018-06-01T09:34:46.778Z,41.70
2018-06-01T09:37:14.301Z,41.80
2018-06-01T09:39:41.834Z,41.80
2018-06-01T09:42:10.119Z,41.80
2018-06-01T09:44:37.633Z,41.80
2018-06-01T09:47:05.119Z,41.80
2018-06-01T09:49:33.347Z,41.80
2018-06-01T09:52:00.886Z,41.80
2018-06-01T09:54:28.400Z,41.80
2018-06-01T09:56:55.958Z,41.80
2018-06-01T09:59:24.203Z,42.10
2018-06-01T10:01:51.694Z,41.80
2018-06-01T10:04:19.224Z,41.80
2018-06-01T10:06:46.700Z,41.80
2018-06-01T10:09:15.031Z,41.80
2018-06-01T10:11:42.569Z,41.90
2018-06-01T10:14:10.058Z,41.80
2018-06-01T10:16:37.544Z,41.90
2018-06-01T10:19:05.072Z,41.90
2018-06-01T10:21:32.554Z,41.80
2018-06-01T10:24:00.051Z,41.80
2018-06-01T10:26:28.463Z,41.80
2018-06-01T10:28:56.662Z,41.90
2018-06-01T10:31:24.154Z,41.80
2018-06-01T10:33:52.464Z,42.50
2018-06-01T10:36:20.023Z,41.80
2018-06-01T10:38:47.589Z,42.90
2018-06-01T10:41:15.142Z,42.40
2018-06-01T10:43:42.647Z,42.20
2018-06-01T10:46:10.132Z,42.20
2018-06-01T10:48:38.403Z,42.30
2018-06-01T10:51:06.636Z,42.40
2018-06-01T10:53:34.122Z,42.40
2018-06-01T10:56:01.659Z,42.40
2018-06-01T10:58:29.136Z,42.50
2018-06-01T11:00:56.726Z,42.50
2018-06-01T11:03:24.187Z,42.50
2018-06-01T11:05:51.716Z,42.60
2018-06-01T11:08:19.276Z,42.60
2018-06-01T11:10:47.582Z,42.60
2018-06-01T11:13:15.098Z,42.60
2018-06-01T11:15:42.570Z,42.60
2018-06-01T11:18:10.937Z,42.60
2018-06-01T11:20:38.510Z,42.60
2018-06-01T11:23:06.797Z,42.60
2018-06-01T11:25:35.073Z,42.60
2018-06-01T11:28:03.329Z,42.60
2018-06-01T11:30:30.877Z,42.60
2018-06-01T11:32:58.411Z,42.70
2018-06-01T11:35:25.885Z,42.70
2018-06-01T11:37:53.405Z,42.70
2018-06-01T11:40:20.888Z,42.70
2018-06-01T11:42:48.371Z,42.70
2018-06-01T11:45:16.762Z,43.10
2018-06-01T11:47:44.327Z,42.70
2018-06-01T11:50:12.589Z,42.70
2018-06-01T11:52:40.876Z,42.80
2018-06-01T11:55:09.115Z,42.80
2018-06-01T11:57:37.459Z,42.80
2018-06-01T12:00:04.988Z,42.80
2018-06-01T12:02:32.563Z,42.80
2018-06-01T12:05:00.045Z,42.80
2018-06-01T12:07:27.615Z,42.80
2018-06-01T12:09:55.101Z,42.80
2018-06-01T12:12:23.371Z,42.80
2018-06-01T12:14:54.593Z,42.80
2018-06-01T12:17:22.889Z,42.80
2018-06-01T12:19:50.443Z,42.80
2018-06-01T12:22:18.047Z,42.80
2018-06-01T12:24:45.573Z,42.80
2018-06-01T12:27:13.810Z,42.80
2018-06-01T12:29:41.333Z,42.90
2018-06-01T12:32:08.945Z,42.90
2018-06-01T12:34:37.277Z,42.90
2018-06-01T12:37:04.811Z,42.80
2018-06-01T12:39:32.299Z,42.80
2018-06-01T12:41:59.827Z,42.90
2018-06-01T12:44:27.366Z,42.90
2018-06-01T12:46:55.676Z,42.90
2018-06-01T12:49:23.203Z,42.90
2018-06-01T12:51:51.472Z,42.90
2018-06-01T12:54:19.777Z,42.90
2018-06-01T12:56:47.309Z,42.90
2018-06-01T12:59:15.629Z,42.90
2018-06-01T13:01:43.137Z,42.90
2018-06-01T13:04:11.426Z,42.90
2018-06-01T13:06:39.723Z,42.90
2018-06-01T13:09:12.765Z,42.90
2018-06-01T13:11:41.369Z,42.90
2018-06-01T13:14:09.669Z,42.90
2018-06-01T13:16:37.149Z,42.90
2018-06-01T13:19:04.678Z,42.80
2018-06-01T13:21:32.203Z,42.80
2018-06-01T13:24:00.537Z,42.90
2018-06-01T13:26:28.054Z,42.90
2018-06-01T13:28:55.553Z,42.80
2018-06-01T13:31:23.111Z,42.90
2018-06-01T13:33:50.619Z,42.90
2018-06-01T13:36:18.913Z,42.90
2018-06-01T13:38:46.430Z,42.90
2018-06-01T13:41:14.673Z,42.90
2018-06-01T13:43:42.216Z,42.90
2018-06-01T13:46:09.694Z,42.90
2018-06-01T13:48:37.221Z,42.90
2018-06-01T13:51:04.713Z,42.90
2018-06-01T13:53:32.215Z,42.90
2018-06-01T13:56:00.528Z,42.90
2018-06-01T13:58:28.083Z,42.90
2018-06-01T14:00:55.584Z,42.80
2018-06-01T14:03:23.073Z,42.90
2018-06-01T14:05:50.605Z,42.10
2018-06-01T14:08:18.837Z,41.30
2018-06-01T14:10:46.358Z,41.30
2018-06-01T14:13:13.832Z,41.40
2018-06-01T14:15:41.356Z,41.20
2018-06-01T14:18:09.629Z,41.50
2018-06-01T14:20:37.929Z,41.60
2018-06-01T14:23:05.566Z,41.60
2018-06-01T14:25:33.836Z,41.50
2018-06-01T14:28:02.194Z,41.40
2018-06-01T14:30:29.759Z,41.40
2018-06-01T14:32:57.361Z,41.50
2018-06-01T14:35:24.828Z,42.00
2018-06-01T14:37:52.346Z,41.10
2018-06-01T14:40:20.993Z,40.70
2018-06-01T14:42:48.630Z,40.70
2018-06-01T14:45:16.152Z,40.60
2018-06-01T14:47:44.473Z,40.50
2018-06-01T14:50:12.020Z,40.60
2018-06-01T14:52:39.494Z,40.60
2018-06-01T14:55:06.982Z,40.50
2018-06-01T14:57:34.600Z,40.40
2018-06-01T15:00:02.099Z,40.40
2018-06-01T15:02:30.388Z,41.00
2018-06-01T15:04:58.669Z,40.10
2018-06-01T15:07:26.953Z,40.00
2018-06-01T15:09:54.453Z,40.00
2018-06-01T15:12:21.957Z,39.90
2018-06-01T15:14:50.229Z,39.90
2018-06-01T15:17:18.486Z,39.70
2018-06-01T15:19:45.997Z,39.60
2018-06-01T15:22:13.495Z,39.80
2018-06-01T15:24:40.972Z,39.80
2018-06-01T15:27:09.204Z,39.60
2018-06-01T15:29:36.729Z,39.60
2018-06-01T15:32:04.290Z,39.50
2018-06-01T15:34:31.773Z,39.40
2018-06-01T15:36:59.292Z,39.50
2018-06-01T15:39:26.868Z,39.50
2018-06-01T15:41:54.487Z,39.30
2018-06-01T15:44:22.729Z,39.60
2018-06-01T15:46:50.259Z,39.60
2018-06-01T15:49:17.787Z,39.80
2018-06-01T15:51:46.023Z,39.60
2018-06-01T15:54:13.537Z,39.70
2018-06-01T15:56:41.081Z,39.80
2018-06-01T15:59:09.337Z,39.80
2018-06-01T16:01:37.639Z,40.00
2018-06-01T16:04:05.138Z,39.90
2018-06-01T16:06:32.659Z,40.00
2018-06-01T16:09:00.223Z,40.00
2018-06-01T16:11:27.741Z,40.10
2018-06-01T16:13:55.243Z,40.10
2018-06-01T16:16:22.901Z,40.10
2018-06-01T16:18:50.375Z,40.70
2018-06-01T16:21:17.898Z,40.30
2018-06-01T16:23:45.446Z,40.50
2018-06-01T16:26:12.919Z,40.60
2018-06-01T16:28:40.465Z,40.50
2018-06-01T16:31:07.949Z,40.50
2018-06-01T16:33:35.430Z,40.50
2018-06-01T16:36:02.958Z,40.90
2018-06-01T16:38:30.444Z,41.00
2018-06-01T16:40:57.929Z,40.70
2018-06-01T16:43:26.306Z,40.50
2018-06-01T16:45:54.545Z,40.40
2018-06-01T16:48:22.037Z,40.40
2018-06-01T16:50:50.325Z,40.30
2018-06-01T16:53:18.600Z,40.20
2018-06-01T16:55:46.086Z,40.30
2018-06-01T16:58:13.595Z,40.20
2018-06-01T17:00:41.114Z,40.20
2018-06-01T17:03:08.604Z,40.10
2018-06-01T17:05:36.127Z,40.30
2018-06-01T17:08:03.646Z,40.00
2018-06-01T17:10:31.896Z,39.90
2018-06-01T17:12:59.456Z,40.00
2018-06-01T17:15:27.782Z,40.00
2018-06-01T17:17:55.282Z,40.00
2018-06-01T17:20:22.811Z,39.90
2018-06-01T17:22:50.324Z,40.00
2018-06-01T17:25:17.829Z,39.80
2018-06-01T17:27:45.311Z,39.60
2018-06-01T17:30:12.852Z,39.60
2018-06-01T17:32:40.434Z,39.80
2018-06-01T17:35:08.702Z,39.90
2018-06-01T17:37:36.238Z,39.90
2018-06-01T17:40:03.719Z,40.10
2018-06-01T17:42:31.237Z,39.90
2018-06-01T17:44:58.745Z,40.20
2018-06-01T17:47:27.023Z,40.40
2018-06-01T17:49:55.270Z,40.40
2018-06-01T17:52:22.802Z,40.40
2018-06-01T17:54:50.299Z,42.00
2018-06-01T17:57:18.554Z,42.10
2018-06-01T17:59:46.084Z,42.20
2018-06-01T18:02:13.703Z,42.50
2018-06-01T18:04:41.980Z,43.10
2018-06-01T18:07:10.820Z,40.20
2018-06-01T18:09:38.371Z,40.20
2018-06-01T18:12:05.879Z,37.90
2018-06-01T18:14:34.201Z,37.20
2018-06-01T18:17:01.728Z,37.20
2018-06-01T18:19:29.274Z,37.20
2018-06-01T18:21:57.782Z,37.20
2018-06-01T18:24:25.271Z,37.20
2018-06-01T18:26:52.766Z,37.20
2018-06-01T18:29:21.063Z,37.10
2018-06-01T18:31:48.557Z,37.10
2018-06-01T18:34:16.058Z,37.10
2018-06-01T18:36:43.610Z,37.10
2018-06-01T18:39:11.904Z,37.20
2018-06-01T18:41:39.394Z,37.10
2018-06-01T18:44:06.906Z,37.10
2018-06-01T18:46:35.174Z,37.10
2018-06-01T18:49:03.430Z,37.80
2018-06-01T18:51:31.694Z,38.20
2018-06-01T18:53:59.220Z,39.00
2018-06-01T18:56:26.702Z,38.40
2018-06-01T18:58:54.375Z,38.60
2018-06-01T19:01:22.108Z,38.80
2018-06-01T19:03:49.700Z,39.00
2018-06-01T19:06:17.962Z,39.80
2018-06-01T19:08:46.265Z,39.30
2018-06-01T19:11:14.576Z,39.30
2018-06-01T19:13:42.822Z,39.30
2018-06-01T19:16:11.124Z,39.40
2018-06-01T19:18:38.662Z,39.40
2018-06-01T19:21:06.920Z,39.50
2018-06-01T19:23:35.206Z,39.50
2018-06-01T19:26:02.774Z,39.60
2018-06-01T19:28:30.243Z,39.70
2018-06-01T19:30:57.774Z,39.60
2018-06-01T19:33:26.035Z,39.80
2018-06-01T19:35:54.334Z,39.90
2018-06-01T19:38:21.890Z,40.60
2018-06-01T19:40:49.386Z,40.20
2018-06-01T19:43:16.971Z,40.10
2018-06-01T19:45:45.290Z,41.00
2018-06-01T19:48:12.811Z,40.30
2018-06-01T19:50:41.091Z,39.90
2018-06-01T19:53:09.340Z,40.40
2018-06-01T19:55:36.839Z,40.40
2018-06-01T19:58:04.384Z,40.50
2018-06-01T20:00:32.692Z,40.50
2018-06-01T20:03:00.158Z,40.50
2018-06-01T20:05:27.812Z,40.50
2018-06-01T20:07:55.310Z,40.50
2018-06-01T20:10:23.646Z,40.70
2018-06-01T20:12:51.226Z,39.80
2018-06-01T20:15:18.736Z,39.00
2018-06-01T20:17:46.266Z,38.70
2018-06-01T20:20:13.746Z,39.00
2018-06-01T20:22:42.026Z,38.70
2018-06-01T20:25:09.590Z,38.70
2018-06-01T20:27:37.065Z,39.30
2018-06-01T20:30:04.580Z,38.90
2018-06-01T20:32:32.140Z,38.60
2018-06-01T20:35:00.374Z,38.70
2018-06-01T20:37:27.872Z,38.70
2018-06-01T20:39:56.164Z,38.90
2018-06-01T20:42:23.657Z,39.00
2018-06-01T20:44:51.138Z,38.50
2018-06-01T20:47:18.715Z,38.40
2018-06-01T20:49:46.988Z,38.30
2018-06-01T20:52:14.489Z,38.30
2018-06-01T20:54:42.000Z,37.60
2018-06-01T20:57:09.487Z,38.20
2018-06-01T20:59:36.977Z,38.10
2018-06-01T21:02:04.520Z,38.10
2018-06-01T21:04:32.026Z,38.60
2018-06-01T21:07:00.354Z,40.10
2018-06-01T21:09:27.892Z,40.80
2018-06-01T21:11:55.383Z,39.30
2018-06-01T21:14:22.855Z,39.00
2018-06-01T21:16:50.368Z,39.30
2018-06-01T21:19:17.856Z,39.10
2018-06-01T21:21:45.366Z,39.40
2018-06-01T21:24:13.722Z,39.60
2018-06-01T21:26:41.223Z,39.50
2018-06-01T21:29:08.754Z,39.30
2018-06-01T21:31:37.030Z,39.70
2018-06-01T21:34:05.291Z,39.70
2018-06-01T21:36:32.818Z,39.70
2018-06-01T21:39:00.368Z,39.80
2018-06-01T21:41:28.612Z,39.50
2018-06-01T21:43:56.157Z,39.50
2018-06-01T21:46:24.525Z,39.10
2018-06-01T21:48:51.997Z,39.10
2018-06-01T21:51:19.500Z,39.30
2018-06-01T21:53:47.021Z,39.40
2018-06-01T21:56:15.374Z,39.30
2018-06-01T21:58:43.684Z,41.60
2018-06-01T22:01:11.162Z,42.30
2018-06-01T22:03:38.661Z,42.50
2018-06-01T22:06:06.192Z,42.50
2018-06-01T22:08:33.682Z,41.90
2018-06-01T22:11:01.194Z,41.10
2018-06-01T22:13:28.682Z,41.70
2018-06-01T22:15:56.147Z,40.70
2018-06-01T22:18:23.634Z,41.40
2018-06-01T22:20:51.922Z,41.20
2018-06-01T22:23:19.437Z,42.00
2018-06-01T22:25:48.418Z,41.10
2018-06-01T22:28:15.994Z,41.10
2018-06-01T22:30:43.600Z,41.40
2018-06-01T22:33:11.092Z,41.60
2018-06-01T22:35:38.713Z,40.70
2018-06-01T22:38:06.209Z,40.90
2018-06-01T22:40:33.710Z,41.30
2018-06-01T22:43:02.089Z,40.90
2018-06-01T22:45:30.342Z,40.60
2018-06-01T22:47:57.886Z,40.60
2018-06-01T22:50:26.468Z,40.50
2018-06-01T22:52:54.005Z,40.70
2018-06-01T22:55:21.484Z,41.00
2018-06-01T22:57:48.962Z,40.90
2018-06-01T23:00:23.906Z,40.40
2018-06-01T23:02:52.170Z,40.30
2018-06-01T23:05:19.664Z,40.30
2018-06-01T23:07:47.175Z,40.20
2018-06-01T23:10:14.667Z,40.90
2018-06-01T23:12:42.909Z,40.60
2018-06-01T23:15:10.418Z,40.70
2018-06-01T23:17:38.333Z,41.10
2018-06-01T23:20:05.804Z,40.80
2018-06-01T23:22:33.312Z,40.70
2018-06-01T23:25:00.798Z,40.60
2018-06-01T23:27:28.287Z,40.60
2018-06-01T23:29:56.649Z,40.70
2018-06-01T23:32:25.751Z,41.10
2018-06-01T23:34:54.001Z,41.60
2018-06-01T23:37:21.516Z,41.30
2018-06-01T23:39:49.009Z,42.00
2018-06-01T23:42:16.618Z,41.90
2018-06-01T23:44:44.859Z,41.80
2018-06-01T23:47:12.361Z,41.80
2018-06-01T23:49:39.826Z,41.80
2018-06-01T23:52:07.339Z,41.80
2018-06-01T23:54:34.906Z,41.80
2018-06-01T23:57:02.505Z,41.80
2018-06-01T23:59:29.983Z,41.80
